Time;durP1;ratioP1;P1;durP2;ratioP2;P2;SDS_P1;SDS_P2;PMS_P1;PMS_P2;Temp;Humidity;BMP_temperature;BMP_pressure;BME280_temperature;BME280_humidity;BME280_pressure;Samples;Min_cycle;Max_cycle;Signal;HPM_P1;HPM_P2
2022/09/09 00:02:15;;;;;;;1.70;1.60;;;;;;;;;;6183868;23;20387;-94
2022/09/09 00:04:49;;;;;;;1.70;1.60;;;;;;;;;;6213048;23;20353;-93
2022/09/09 00:07:32;;;;;;;1.90;1.63;;;;;;;;;;6183974;23;20831;-93
2022/09/09 00:10:26;;;;;;;1.30;1.30;;;;;;;;;;6193199;23;20355;-92
2022/09/09 00:16:02;;;;;;;1.48;1.38;;;;;;;;;;6196182;23;20371;-92
2022/09/09 00:18:54;;;;;;;1.60;1.50;;;;;;;;;;6183701;23;20739;-92
2022/09/09 00:21:22;;;;;;;1.50;1.40;;;;;;;;;;6186127;23;20354;-92
2022/09/09 00:23:53;;;;;;;2.97;1.40;;;;;;;;;;6185401;23;20855;-92
2022/09/09 00:26:40;;;;;;;1.80;1.30;;;;;;;;;;6189814;23;20410;-93
2022/09/09 00:29:24;;;;;;;2.45;1.50;;;;;;;;;;6185756;23;20358;-93
2022/09/09 00:32:07;;;;;;;1.33;1.33;;;;;;;;;;6216182;23;20426;-92
2022/09/09 00:34:40;;;;;;;1.42;1.33;;;;;;;;;;6215583;23;20360;-92
2022/09/09 00:37:22;;;;;;;1.77;1.70;;;;;;;;;;6222531;23;20351;-92
2022/09/09 00:40:16;;;;;;;1.60;1.50;;;;;;;;;;6195254;23;20360;-92
2022/09/09 00:43:05;;;;;;;1.70;1.60;;;;;;;;;;6203315;23;20404;-92
2022/09/09 00:46:25;;;;;;;1.50;1.38;;;;;;;;;;6212910;23;20426;-92
2022/09/09 00:49:36;;;;;;;1.90;1.33;;;;;;;;;;6224672;23;20705;-92
2022/09/09 00:52:37;;;;;;;1.70;1.70;;;;;;;;;;6105474;23;20382;-93
2022/09/09 00:55:19;;;;;;;1.90;1.70;;;;;;;;;;6061255;23;20391;-92
2022/09/09 03:25:40;;;;;;;2.80;2.60;;;;;;;;;;6121364;22;20374;-91
2022/09/09 03:28:33;;;;;;;;;;;;;;;;;;;;;
2022/09/09 03:50:19;;;;;;;4.18;2.65;;;;;;;;;;6135340;23;20412;-91
2022/09/09 04:47:02;;;;;;;3.60;3.10;;;;;;;;;;6239050;22;20406;-94
2022/09/09 04:59:03;;;;;;;3.38;3.08;;;;;;;;;;6205871;23;20368;-92
2022/09/09 05:02:04;;;;;;;4.03;3.00;;;;;;;;;;6164018;23;20391;-94
2022/09/09 05:04:30;;;;;;;3.80;2.70;;;;;;;;;;6173223;23;20369;-89
2022/09/09 05:06:59;;;;;;;3.00;2.80;;;;;;;;;;6171690;23;20792;-91
2022/09/09 05:09:36;;;;;;;4.43;3.10;;;;;;;;;;6172040;23;20562;-94
2022/09/09 05:12:14;;;;;;;6.70;3.50;;;;;;;;;;6171940;23;20382;-93
2022/09/09 05:15:13;;;;;;;;;;;;;;;;;;;;;
2022/09/09 05:23:19;;;;;;;3.35;3.00;;;;;;;;;;6141617;22;20401;-91
2022/09/09 05:31:35;;;;;;;4.13;3.30;;;;;;;;;;6175304;22;20404;-92
2022/09/09 05:34:04;;;;;;;2.77;2.57;;;;;;;;;;6185253;23;20396;-91
2022/09/09 05:36:36;;;;;;;4.95;2.60;;;;;;;;;;6168423;23;20395;-89
2022/09/09 05:39:02;;;;;;;3.70;3.10;;;;;;;;;;6156088;23;20751;-89
2022/09/09 05:41:29;;;;;;;3.60;2.83;;;;;;;;;;6159147;23;20435;-87
2022/09/09 05:44:03;;;;;;;3.80;3.50;;;;;;;;;;6156365;23;20390;-90
2022/09/09 05:46:55;;;;;;;3.53;3.22;;;;;;;;;;6157419;23;20454;-91
2022/09/09 05:49:32;;;;;;;;;;;;;;;;;;;;;
2022/09/09 05:51:58;;;;;;;3.95;2.70;;;;;;;;;;6156310;23;20421;-87
2022/09/09 05:54:33;;;;;;;3.50;3.20;;;;;;;;;;6129681;23;20457;-89
2022/09/09 05:57:01;;;;;;;6.38;3.22;;;;;;;;;;6137681;23;22275;-89
2022/09/09 05:59:29;;;;;;;4.45;2.67;;;;;;;;;;6134727;23;20383;-88
2022/09/09 06:02:04;;;;;;;6.95;3.35;;;;;;;;;;6151622;23;20524;-90
2022/09/09 06:04:45;;;;;;;3.30;2.90;;;;;;;;;;6126542;23;20367;-92
2022/09/09 06:07:13;;;;;;;3.47;2.88;;;;;;;;;;6127472;23;20472;-91
2022/09/09 06:09:39;;;;;;;3.35;2.90;;;;;;;;;;6126957;23;20374;-91
2022/09/09 06:12:10;;;;;;;3.05;2.60;;;;;;;;;;6125274;23;20902;-90
2022/09/09 06:14:38;;;;;;;3.60;2.50;;;;;;;;;;6121942;23;20831;-90
2022/09/09 06:17:06;;;;;;;3.33;2.60;;;;;;;;;;6150196;23;20335;-90
2022/09/09 06:19:32;;;;;;;2.65;2.55;;;;;;;;;;6124177;23;20363;-90
2022/09/09 06:22:01;;;;;;;4.78;2.72;;;;;;;;;;6126519;23;20443;-90
2022/09/09 06:24:32;;;;;;;3.65;2.45;;;;;;;;;;6127877;23;20462;-90
2022/09/09 06:27:25;;;;;;;3.17;2.55;;;;;;;;;;6153675;23;20347;-90
2022/09/09 06:30:23;;;;;;;3.30;2.63;;;;;;;;;;6126912;23;20441;-90
2022/09/09 06:35:56;;;;;;;4.60;2.50;;;;;;;;;;6087696;23;21008;-90
2022/09/09 06:38:25;;;;;;;2.40;2.20;;;;;;;;;;6094470;23;20402;-90
2022/09/09 06:40:58;;;;;;;2.10;2.00;;;;;;;;;;6068527;23;20518;-90
2022/09/09 06:46:22;;;;;;;2.40;2.30;;;;;;;;;;6136720;23;20367;-90
2022/09/09 06:48:48;;;;;;;3.65;2.15;;;;;;;;;;6153801;23;20374;-90
2022/09/09 06:51:24;;;;;;;4.70;2.70;;;;;;;;;;6133773;23;20430;-90
2022/09/09 06:53:56;;;;;;;3.03;2.00;;;;;;;;;;6130330;23;20681;-89
2022/09/09 06:56:33;;;;;;;2.40;2.20;;;;;;;;;;6131225;23;20497;-90
2022/09/09 07:01:34;;;;;;;2.40;2.00;;;;;;;;;;6227419;22;20450;-94
2022/09/09 07:06:46;;;;;;;2.50;2.10;;;;;;;;;;6172560;22;20400;-89
2022/09/09 07:09:13;;;;;;;2.00;1.90;;;;;;;;;;6181848;23;20381;-91
2022/09/09 07:11:41;;;;;;;1.95;1.75;;;;;;;;;;6181367;23;20372;-93
2022/09/09 07:32:30;;;;;;;3.70;2.10;;;;;;;;;;6137699;23;21636;-92
2022/09/09 07:34:58;;;;;;;2.60;2.30;;;;;;;;;;6182406;22;20393;-88
2022/09/09 07:40:21;;;;;;;;;;;;;;;;;;;;;
2022/09/09 07:42:47;;;;;;;2.85;1.70;;;;;;;;;;6164944;23;20397;-93
2022/09/09 07:45:16;;;;;;;2.13;1.90;;;;;;;;;;6165753;23;20381;-92
2022/09/09 07:47:45;;;;;;;1.80;1.70;;;;;;;;;;6190863;23;20358;-92
2022/09/09 07:50:15;;;;;;;2.10;1.73;;;;;;;;;;6189549;23;20398;-92
2022/09/09 07:53:06;;;;;;;1.90;1.70;;;;;;;;;;6168696;23;20436;-92
2022/09/09 07:55:41;;;;;;;2.17;1.98;;;;;;;;;;6164342;23;20683;-93
2022/09/09 07:58:07;;;;;;;4.40;2.20;;;;;;;;;;6162311;23;20880;-89
2022/09/09 08:00:36;;;;;;;3.22;2.00;;;;;;;;;;6180124;23;20353;-90
2022/09/09 08:03:03;;;;;;;1.95;1.80;;;;;;;;;;6155551;23;20746;-88
2022/09/09 08:05:29;;;;;;;2.05;1.95;;;;;;;;;;6155169;23;20354;-89
2022/09/09 08:07:55;;;;;;;2.30;2.10;;;;;;;;;;6180825;23;20408;-90
2022/09/09 08:10:21;;;;;;;2.23;2.03;;;;;;;;;;6182946;23;20378;-89
2022/09/09 08:12:48;;;;;;;2.38;2.10;;;;;;;;;;6183928;23;20387;-90
2022/09/09 08:15:14;;;;;;;5.90;3.85;;;;;;;;;;6182730;23;20364;-90
2022/09/09 08:17:40;;;;;;;2.17;2.08;;;;;;;;;;6186547;23;20558;-91
2022/09/09 08:20:06;;;;;;;2.17;1.90;;;;;;;;;;6209625;23;20356;-90
2022/09/09 08:22:34;;;;;;;3.20;1.70;;;;;;;;;;6213676;23;20358;-88
2022/09/09 08:25:00;;;;;;;2.28;1.88;;;;;;;;;;6184736;23;20367;-88
2022/09/09 08:27:26;;;;;;;1.60;1.50;;;;;;;;;;6187203;23;20362;-90
2022/09/09 08:29:52;;;;;;;3.40;1.70;;;;;;;;;;6184658;23;20391;-90
2022/09/09 08:32:19;;;;;;;2.45;2.33;;;;;;;;;;6190161;23;20371;-90
2022/09/09 08:35:10;;;;;;;;;;;;;;;;;;;;;
2022/09/09 08:37:40;;;;;;;1.80;1.70;;;;;;;;;;6193917;23;20420;-91
2022/09/09 08:40:09;;;;;;;2.40;1.90;;;;;;;;;;6231093;23;20443;-90
2022/09/09 08:42:48;;;;;;;3.83;1.80;;;;;;;;;;6232458;23;20362;-92
2022/09/09 08:45:45;;;;;;;2.93;2.00;;;;;;;;;;6234713;23;20415;-90
2022/09/09 08:48:11;;;;;;;7.30;2.55;;;;;;;;;;6262860;23;20354;-90
2022/09/09 08:53:38;;;;;;;1.60;1.50;;;;;;;;;;6199148;23;20492;-90
2022/09/09 08:56:22;;;;;;;3.72;1.92;;;;;;;;;;6224983;23;20413;-90
2022/09/09 08:58:50;;;;;;;3.15;1.60;;;;;;;;;;6225293;23;20435;-90
2022/09/09 09:01:27;;;;;;;2.93;2.50;;;;;;;;;;6215299;23;20544;-92
2022/09/09 09:04:15;;;;;;;2.30;1.60;;;;;;;;;;6221690;23;20394;-93
2022/09/09 09:06:55;;;;;;;1.90;1.60;;;;;;;;;;6234733;23;20394;-92
2022/09/09 09:09:21;;;;;;;3.13;1.80;;;;;;;;;;6252699;23;20385;-89
2022/09/09 09:18:44;;;;;;;1.73;1.63;;;;;;;;;;6228662;23;20416;-91
2022/09/09 09:24:32;;;;;;;1.40;1.30;;;;;;;;;;6194429;23;20472;-89
2022/09/09 09:27:01;;;;;;;3.42;1.55;;;;;;;;;;6248587;23;20369;-91
2022/09/09 09:29:40;;;;;;;;;;;;;;;;;;;;;
2022/09/09 09:32:27;;;;;;;1.95;1.48;;;;;;;;;;6233792;23;20613;-91
2022/09/09 09:35:00;;;;;;;1.40;1.30;;;;;;;;;;6247695;23;20377;-88
2022/09/09 09:37:31;;;;;;;3.15;1.60;;;;;;;;;;6243755;23;20889;-92
2022/09/09 09:40:56;;;;;;;1.80;1.70;;;;;;;;;;6240758;23;20403;-91
2022/09/09 09:43:29;;;;;;;;;;;;;;;;;;;;;
2022/09/09 10:15:27;;;;;;;1.20;1.10;;;;;;;;;;6243386;23;20489;-93
2022/09/09 10:23:49;;;;;;;1.58;1.20;;;;;;;;;;6184239;23;20361;-90
2022/09/09 10:26:19;;;;;;;1.83;1.00;;;;;;;;;;6160765;23;20452;-91
2022/09/09 10:32:25;;;;;;;1.20;1.10;;;;;;;;;;6193183;23;20376;-92
2022/09/09 10:35:19;;;;;;;1.40;1.30;;;;;;;;;;6160278;23;20420;-94
2022/09/09 10:38:03;;;;;;;1.80;1.33;;;;;;;;;;6192758;23;20361;-92
2022/09/09 10:40:44;;;;;;;1.30;1.20;;;;;;;;;;6161862;23;20737;-93
2022/09/09 10:43:35;;;;;;;1.60;1.40;;;;;;;;;;6168783;23;20369;-93
2022/09/09 10:46:07;;;;;;;1.30;1.30;;;;;;;;;;6163929;23;20436;-92
2022/09/09 10:48:45;;;;;;;1.70;1.60;;;;;;;;;;6166993;23;20354;-90
2022/09/09 10:54:03;;;;;;;1.40;1.40;;;;;;;;;;6220012;23;20397;-93
2022/09/09 10:56:36;;;;;;;1.92;1.20;;;;;;;;;;6191783;23;20386;-93
2022/09/09 10:59:11;;;;;;;2.10;1.30;;;;;;;;;;6194518;23;20371;-90
2022/09/09 11:01:49;;;;;;;1.13;1.10;;;;;;;;;;6193220;23;20367;-91
2022/09/09 11:04:41;;;;;;;2.55;1.50;;;;;;;;;;6203239;23;20360;-93
2022/09/09 11:07:11;;;;;;;1.33;1.20;;;;;;;;;;6207625;23;20462;-91
2022/09/09 11:15:17;;;;;;;2.08;1.10;;;;;;;;;;6229710;23;20400;-92
2022/09/09 11:18:04;;;;;;;;;;;;;;;;;;;;;
2022/09/09 11:20:41;;;;;;;;;;;;;;;;;;;;;
2022/09/09 11:27:02;;;;;;;1.45;1.30;;;;;;;;;;6204832;23;20451;-91
2022/09/09 11:30:02;;;;;;;;;;;;;;;;;;;;;
2022/09/09 11:35:28;;;;;;;5.10;1.20;;;;;;;;;;6239949;22;20393;-92
2022/09/09 11:40:50;;;;;;;1.10;0.90;;;;;;;;;;6043491;22;5040938;-93
2022/09/09 11:43:35;;;;;;;;;;;;;;;;;;;;;
2022/09/09 11:46:20;;;;;;;2.10;1.30;;;;;;;;;;6283784;22;20395;-91
2022/09/09 11:49:00;;;;;;;2.20;1.10;;;;;;;;;;6262163;22;20344;-93
2022/09/09 11:51:33;;;;;;;1.30;1.20;;;;;;;;;;6259985;22;20360;-89
2022/09/09 11:54:28;;;;;;;;;;;;;;;;;;;;;
2022/09/09 11:57:24;;;;;;;1.40;1.40;;;;;;;;;;6279062;22;20368;-91
2022/09/09 11:59:59;;;;;;;1.20;1.20;;;;;;;;;;6251857;22;20468;-90
2022/09/09 12:02:51;;;;;;;3.28;1.90;;;;;;;;;;6248510;22;20705;-90
2022/09/09 12:05:21;;;;;;;1.40;1.30;;;;;;;;;;6249177;22;20360;-90
2022/09/09 12:08:03;;;;;;;1.00;1.00;;;;;;;;;;6248598;22;20697;-90
2022/09/09 12:11:04;;;;;;;2.90;1.08;;;;;;;;;;6252222;22;20433;-94
2022/09/09 12:13:31;;;;;;;1.13;1.13;;;;;;;;;;6257663;22;20378;-94
2022/09/09 12:15:58;;;;;;;1.70;1.30;;;;;;;;;;6259423;22;20820;-93
2022/09/09 12:18:57;;;;;;;1.67;1.57;;;;;;;;;;6256045;22;20395;-95
2022/09/09 12:21:49;;;;;;;1.83;1.38;;;;;;;;;;6216973;23;20368;-96
2022/09/09 12:24:25;;;;;;;1.67;1.60;;;;;;;;;;6211930;22;20400;-96
2022/09/09 12:27:34;;;;;;;1.02;1.02;;;;;;;;;;6255047;22;20352;-93
2022/09/09 12:30:27;;;;;;;;;;;;;;;;;;;;;
2022/09/09 12:33:49;;;;;;;;;;;;;;;;;;;;;
2022/09/09 12:36:37;;;;;;;1.50;1.40;;;;;;;;;;6187042;23;20393;-94
2022/09/09 12:39:14;;;;;;;1.48;1.33;;;;;;;;;;6167201;23;20856;-94
2022/09/09 12:41:56;;;;;;;1.27;1.17;;;;;;;;;;6269396;22;20457;-92
2022/09/09 12:47:40;;;;;;;4.60;1.38;;;;;;;;;;6224828;23;20713;-90
2022/09/09 12:50:17;;;;;;;1.10;1.10;;;;;;;;;;6280344;22;20356;-92
2022/09/09 12:55:24;;;;;;;2.20;1.10;;;;;;;;;;6214693;22;20407;-91
2022/09/09 13:19:15;;;;;;;1.30;1.30;;;;;;;;;;6226306;22;20455;-93
2022/09/09 13:29:52;;;;;;;1.70;1.60;;;;;;;;;;6220856;22;21199;-89
2022/09/09 13:32:20;;;;;;;2.22;1.05;;;;;;;;;;6177383;23;20441;-91
2022/09/09 13:35:12;;;;;;;1.75;1.40;;;;;;;;;;6161371;23;20387;-93
2022/09/09 13:40:26;;;;;;;1.60;1.50;;;;;;;;;;6220454;22;20391;-91
2022/09/09 13:42:56;;;;;;;1.88;1.77;;;;;;;;;;6198827;23;20380;-91
2022/09/09 13:45:29;;;;;;;2.40;2.00;;;;;;;;;;6199033;23;20372;-94
2022/09/09 13:48:13;;;;;;;3.13;1.80;;;;;;;;;;6196951;23;20371;-93
2022/09/09 13:50:41;;;;;;;4.20;2.35;;;;;;;;;;6197955;23;20386;-92
2022/09/09 13:53:08;;;;;;;2.15;2.05;;;;;;;;;;6196239;23;20395;-92
2022/09/09 13:55:56;;;;;;;4.50;2.50;;;;;;;;;;6195285;23;20642;-94
2022/09/09 13:58:32;;;;;;;3.15;2.30;;;;;;;;;;6191941;23;20504;-93
2022/09/09 14:01:01;;;;;;;6.05;2.50;;;;;;;;;;6190459;23;20367;-93
2022/09/09 14:03:43;;;;;;;2.63;2.25;;;;;;;;;;6199387;23;20359;-95
2022/09/09 14:08:45;;;;;;;2.58;2.30;;;;;;;;;;6205970;22;20408;-91
2022/09/09 14:11:13;;;;;;;3.55;2.10;;;;;;;;;;6191995;23;20775;-89
2022/09/09 14:13:56;;;;;;;3.58;2.33;;;;;;;;;;6189026;23;20387;-93
2022/09/09 14:16:28;;;;;;;4.13;2.60;;;;;;;;;;6194332;23;20375;-92
2022/09/09 14:18:56;;;;;;;4.05;2.08;;;;;;;;;;6201317;23;20378;-89
2022/09/09 14:21:29;;;;;;;2.20;1.80;;;;;;;;;;6202412;23;20375;-92
2022/09/09 14:24:06;;;;;;;3.67;2.30;;;;;;;;;;6202715;23;20447;-92
2022/09/09 14:26:40;;;;;;;2.38;2.17;;;;;;;;;;6189946;23;20375;-92
2022/09/09 14:29:09;;;;;;;2.70;2.03;;;;;;;;;;6229572;23;20327;-91
2022/09/09 14:31:35;;;;;;;2.28;2.10;;;;;;;;;;6209202;23;20372;-93
2022/09/09 14:34:04;;;;;;;2.97;2.40;;;;;;;;;;6207225;23;20387;-91
2022/09/09 14:39:26;;;;;;;;;;;;;;;;;;;;;
2022/09/09 14:42:08;;;;;;;2.17;2.08;;;;;;;;;;6175678;23;20399;-92
2022/09/09 14:44:42;;;;;;;1.85;1.70;;;;;;;;;;6149694;23;20385;-90
2022/09/09 14:55:11;;;;;;;2.97;1.50;;;;;;;;;;6216752;22;20722;-90
2022/09/09 14:58:15;;;;;;;1.50;1.35;;;;;;;;;;6213600;22;20379;-93
2022/09/09 15:11:57;;;;;;;2.80;1.10;;;;;;;;;;6154969;23;21615;-92
2022/09/09 15:14:31;;;;;;;0.90;0.90;;;;;;;;;;6234176;23;20376;-91
2022/09/09 16:00:45;;;;;;;1.10;1.00;;;;;;;;;;6196182;22;21254;-88
2022/09/09 16:03:26;;;;;;;2.60;0.93;;;;;;;;;;6238652;23;20362;-96
2022/09/09 16:11:39;;;;;;;1.20;1.20;;;;;;;;;;6189752;22;20408;-90
2022/09/09 16:36:10;;;;;;;1.80;1.23;;;;;;;;;;6232125;23;20429;-93
2022/09/09 16:41:34;;;;;;;1.90;1.80;;;;;;;;;;6191261;23;20431;-90
2022/09/09 16:44:02;;;;;;;1.90;1.80;;;;;;;;;;6167275;23;20376;-91
2022/09/09 16:49:07;;;;;;;1.70;1.60;;;;;;;;;;6210704;22;20908;-92
2022/09/09 16:51:36;;;;;;;1.70;1.60;;;;;;;;;;6229195;23;20374;-90
2022/09/09 16:54:04;;;;;;;1.70;1.60;;;;;;;;;;6222622;23;20391;-92
2022/09/09 16:56:36;;;;;;;2.10;2.00;;;;;;;;;;6219854;23;20355;-91
2022/09/09 16:59:04;;;;;;;1.85;1.80;;;;;;;;;;6221163;23;20363;-92
2022/09/09 17:01:32;;;;;;;2.10;2.00;;;;;;;;;;6218534;23;20830;-92
2022/09/09 17:04:02;;;;;;;2.00;1.90;;;;;;;;;;6213110;23;20360;-92
2022/09/09 17:06:29;;;;;;;2.10;2.00;;;;;;;;;;6210799;23;20372;-91
2022/09/09 17:08:56;;;;;;;2.65;2.00;;;;;;;;;;6214884;23;20411;-93
2022/09/09 17:11:23;;;;;;;2.20;2.10;;;;;;;;;;6212734;23;20367;-90
2022/09/09 17:13:49;;;;;;;2.10;2.00;;;;;;;;;;6215100;23;20368;-93
2022/09/09 17:16:17;;;;;;;2.78;2.10;;;;;;;;;;6210284;23;20675;-93
2022/09/09 17:18:43;;;;;;;2.22;2.13;;;;;;;;;;6209459;23;20423;-90
2022/09/09 17:21:12;;;;;;;2.60;2.40;;;;;;;;;;6207786;23;20461;-92
2022/09/09 17:23:38;;;;;;;2.95;2.60;;;;;;;;;;6204413;23;20697;-91
2022/09/09 17:26:07;;;;;;;2.40;2.20;;;;;;;;;;6202611;23;20791;-90
2022/09/09 17:28:33;;;;;;;2.30;2.20;;;;;;;;;;6205360;23;20352;-92
2022/09/09 17:31:04;;;;;;;2.13;2.03;;;;;;;;;;6209540;23;20847;-91
2022/09/09 17:33:34;;;;;;;3.75;2.55;;;;;;;;;;6217463;23;20384;-93
2022/09/09 17:36:01;;;;;;;2.50;2.30;;;;;;;;;;6210760;23;20428;-88
2022/09/09 17:38:28;;;;;;;2.28;2.20;;;;;;;;;;6202859;23;21062;-88
2022/09/09 17:41:04;;;;;;;3.22;2.40;;;;;;;;;;6200331;23;21319;-88
2022/09/09 17:43:59;;;;;;;4.15;2.67;;;;;;;;;;6221991;23;20371;-95
2022/09/09 17:46:40;;;;;;;2.30;2.20;;;;;;;;;;6217989;23;20470;-93
2022/09/09 17:52:10;;;;;;;2.30;2.20;;;;;;;;;;6192938;22;20424;-90
2022/09/09 17:54:36;;;;;;;2.50;2.42;;;;;;;;;;6152597;23;20423;-90
2022/09/09 17:57:03;;;;;;;3.60;2.50;;;;;;;;;;6178768;23;20361;-91
2022/09/09 17:59:29;;;;;;;3.50;3.20;;;;;;;;;;6167213;23;20523;-88
2022/09/09 18:02:24;;;;;;;3.10;2.90;;;;;;;;;;6173090;23;20373;-93
2022/09/09 18:13:14;;;;;;;2.92;2.72;;;;;;;;;;6168384;22;20431;-92
2022/09/09 18:27:24;;;;;;;1.87;1.87;;;;;;;;;;6231675;23;20396;-88
2022/09/09 18:33:16;;;;;;;2.40;2.30;;;;;;;;;;6187424;23;20445;-92
2022/09/09 18:50:16;;;;;;;3.40;3.20;;;;;;;;;;6132602;23;20463;-93
2022/09/09 19:06:09;;;;;;;3.73;3.00;;;;;;;;;;6199539;23;20427;-92
2022/09/09 19:09:01;;;;;;;3.80;3.50;;;;;;;;;;6219707;23;20383;-93
2022/09/09 19:11:54;;;;;;;4.65;3.60;;;;;;;;;;6224386;23;20410;-89
2022/09/09 19:14:57;;;;;;;3.53;3.30;;;;;;;;;;6052367;23;20437;-91
2022/09/09 19:17:27;;;;;;;3.10;3.00;;;;;;;;;;6077921;23;20424;-93
2022/09/09 19:31:14;;;;;;;3.53;3.33;;;;;;;;;;6219885;22;20474;-93
2022/09/09 19:42:12;;;;;;;3.83;3.53;;;;;;;;;;6199882;22;20428;-91
2022/09/09 19:44:51;;;;;;;3.30;3.10;;;;;;;;;;6108371;23;20429;-92
2022/09/09 19:47:51;;;;;;;3.30;3.10;;;;;;;;;;6108454;23;20396;-91
2022/09/09 19:50:31;;;;;;;3.55;3.30;;;;;;;;;;6116855;23;20362;-90
2022/09/09 19:55:56;;;;;;;3.53;3.22;;;;;;;;;;6187348;22;20412;-92
2022/09/09 19:58:50;;;;;;;3.63;3.40;;;;;;;;;;6172061;23;20396;-92
2022/09/09 20:04:55;;;;;;;3.40;3.30;;;;;;;;;;6188053;23;20365;-92
2022/09/09 20:07:48;;;;;;;3.00;2.80;;;;;;;;;;6175216;23;20364;-92
2022/09/09 20:52:51;;;;;;;2.50;2.40;;;;;;;;;;6198155;22;20462;-96
2022/09/09 20:55:51;;;;;;;3.47;2.50;;;;;;;;;;6167598;23;20449;-95
2022/09/09 21:01:55;;;;;;;2.40;2.20;;;;;;;;;;6188726;23;20368;-92
2022/09/09 21:04:49;;;;;;;2.53;2.20;;;;;;;;;;6119532;23;20400;-92
2022/09/09 21:39:02;;;;;;;3.25;2.10;;;;;;;;;;6183177;22;20401;-90
2022/09/09 21:42:00;;;;;;;2.70;2.60;;;;;;;;;;6215754;23;20427;-91
2022/09/09 21:44:46;;;;;;;5.22;2.30;;;;;;;;;;6215033;23;20739;-92
2022/09/09 21:47:14;;;;;;;2.70;2.40;;;;;;;;;;6215790;23;20476;-90
2022/09/09 21:49:49;;;;;;;3.75;2.72;;;;;;;;;;6190074;23;20750;-92
2022/09/09 21:52:49;;;;;;;;;;;;;;;;;;;;;
2022/09/09 21:55:46;;;;;;;2.55;2.45;;;;;;;;;;6187473;23;20385;-91
2022/09/09 22:07:16;;;;;;;4.15;2.50;;;;;;;;;;6183514;23;20713;-92
2022/09/09 22:09:54;;;;;;;3.00;2.45;;;;;;;;;;6181967;23;20448;-92
2022/09/09 22:12:49;;;;;;;2.55;2.35;;;;;;;;;;6198726;23;20385;-92
2022/09/09 22:15:44;;;;;;;4.07;2.88;;;;;;;;;;6209108;23;20417;-93
2022/09/09 22:23:25;;;;;;;2.70;2.50;;;;;;;;;;6273907;22;20925;-93
2022/09/09 22:25:53;;;;;;;5.20;2.42;;;;;;;;;;6253719;22;20383;-92
2022/09/09 22:28:41;;;;;;;2.80;2.30;;;;;;;;;;6249668;22;20682;-93
2022/09/09 22:31:24;;;;;;;2.53;2.33;;;;;;;;;;6274050;22;20911;-93
2022/09/09 22:33:59;;;;;;;2.13;2.13;;;;;;;;;;6249428;22;20388;-93
2022/09/09 22:36:30;;;;;;;3.08;2.60;;;;;;;;;;6253522;22;20383;-93
2022/09/09 22:39:20;;;;;;;4.90;2.58;;;;;;;;;;6253606;22;20352;-91
2022/09/09 22:41:49;;;;;;;2.70;2.50;;;;;;;;;;6139643;23;20364;-91
2022/09/09 22:44:17;;;;;;;2.50;2.15;;;;;;;;;;6272680;22;20351;-93
2022/09/09 22:46:47;;;;;;;2.80;2.60;;;;;;;;;;6269496;22;20344;-93
2022/09/09 22:49:13;;;;;;;2.65;2.33;;;;;;;;;;6266459;22;20358;-93
2022/09/09 22:51:40;;;;;;;3.20;2.90;;;;;;;;;;6258506;22;20387;-93
2022/09/09 22:54:12;;;;;;;4.28;2.38;;;;;;;;;;6249496;22;20379;-92
2022/09/09 22:56:48;;;;;;;;;;;;;;;;;;;;;
2022/09/09 22:59:17;;;;;;;2.90;2.80;;;;;;;;;;6280036;22;20371;-92
2022/09/09 23:02:38;;;;;;;2.60;2.50;;;;;;;;;;6271750;22;20361;-92
2022/09/09 23:04:39;;;;;;;3.15;2.70;;;;;;;;;;6265286;22;20355;-92
2022/09/09 23:07:19;;;;;;;2.63;2.53;;;;;;;;;;6254355;22;20387;-93
2022/09/09 23:09:52;;;;;;;3.58;2.70;;;;;;;;;;6251355;22;20374;-93
2022/09/09 23:12:21;;;;;;;3.42;3.13;;;;;;;;;;6255443;22;20415;-92
2022/09/09 23:14:55;;;;;;;2.60;2.40;;;;;;;;;;6259201;22;20473;-93
2022/09/09 23:17:26;;;;;;;5.60;2.60;;;;;;;;;;6251465;22;20364;-94
2022/09/09 23:19:55;;;;;;;2.90;2.70;;;;;;;;;;6250028;22;20352;-92
2022/09/09 23:22:21;;;;;;;2.55;2.45;;;;;;;;;;6249722;22;20862;-93
2022/09/09 23:24:52;;;;;;;2.95;2.60;;;;;;;;;;6251819;22;20357;-93
2022/09/09 23:27:24;;;;;;;3.67;2.40;;;;;;;;;;6248647;22;20364;-93
2022/09/09 23:29:50;;;;;;;2.60;2.40;;;;;;;;;;6252538;22;20363;-92
2022/09/09 23:32:18;;;;;;;3.70;2.60;;;;;;;;;;6252842;22;20375;-93
2022/09/09 23:34:56;;;;;;;2.50;2.30;;;;;;;;;;6257660;22;20423;-93
2022/09/09 23:37:26;;;;;;;2.70;2.60;;;;;;;;;;6253838;22;20394;-93
2022/09/09 23:39:53;;;;;;;2.55;2.35;;;;;;;;;;6259116;22;20816;-94
2022/09/09 23:42:32;;;;;;;2.67;2.42;;;;;;;;;;6285548;22;20353;-92
2022/09/09 23:45:03;;;;;;;2.50;2.40;;;;;;;;;;6252890;22;20657;-93
2022/09/09 23:47:29;;;;;;;3.58;3.10;;;;;;;;;;6246595;22;20395;-93
2022/09/09 23:50:01;;;;;;;4.03;2.50;;;;;;;;;;6253538;22;20424;-91
2022/09/09 23:52:45;;;;;;;3.70;2.10;;;;;;;;;;6254152;22;20372;-93
2022/09/09 23:55:36;;;;;;;3.10;2.50;;;;;;;;;;6249766;22;20353;-92
2022/09/09 23:58:06;;;;;;;2.70;2.20;;;;;;;;;;6274130;22;20488;-92
